sensor_id;sensor_type;location;lat;lon;timestamp;pressure;altitude;pressure_sealevel;temperature;humidity
54172;BME280;40076;52.354;4.970;2024-02-14T00:01:03;101220.97;;;8.41;100.00
54172;BME280;40076;52.354;4.970;2024-02-14T00:03:29;101223.38;;;8.43;100.00
54172;BME280;40076;52.354;4.970;2024-02-14T00:05:54;101231.69;;;8.46;100.00
54172;BME280;40076;52.354;4.970;2024-02-14T00:08:22;101215.81;;;8.45;100.00
54172;BME280;40076;52.354;4.970;2024-02-14T00:10:48;101221.41;;;8.48;100.00
54172;BME280;40076;52.354;4.970;2024-02-14T00:13:13;101211.94;;;8.51;100.00
54172;BME280;40076;52.354;4.970;2024-02-14T00:15:39;101215.44;;;8.51;100.00
54172;BME280;40076;52.354;4.970;2024-02-14T00:18:05;101204.06;;;8.55;100.00
54172;BME280;40076;52.354;4.970;2024-02-14T00:20:30;101199.97;;;8.57;100.00
54172;BME280;40076;52.354;4.970;2024-02-14T00:22:58;101201.28;;;8.60;100.00
54172;BME280;40076;52.354;4.970;2024-02-14T00:25:26;101197.00;;;8.59;100.00
54172;BME280;40076;52.354;4.970;2024-02-14T00:27:51;101191.78;;;8.62;100.00
54172;BME280;40076;52.354;4.970;2024-02-14T00:30:19;101191.50;;;8.64;100.00
54172;BME280;40076;52.354;4.970;2024-02-14T00:32:44;101187.22;;;8.63;100.00
54172;BME280;40076;52.354;4.970;2024-02-14T00:35:10;101192.81;;;8.66;100.00
54172;BME280;40076;52.354;4.970;2024-02-14T00:37:35;101186.84;;;8.69;100.00
54172;BME280;40076;52.354;4.970;2024-02-14T00:40:00;101190.31;;;8.70;100.00
54172;BME280;40076;52.354;4.970;2024-02-14T00:42:26;101184.94;;;8.70;100.00
54172;BME280;40076;52.354;4.970;2024-02-14T00:44:52;101188.94;;;8.72;100.00
54172;BME280;40076;52.354;4.970;2024-02-14T00:47:18;101185.16;;;8.73;100.00
54172;BME280;40076;52.354;4.970;2024-02-14T00:49:46;101189.94;;;8.76;100.00
54172;BME280;40076;52.354;4.970;2024-02-14T00:52:11;101188.53;;;8.79;100.00
54172;BME280;40076;52.354;4.970;2024-02-14T00:54:37;101189.03;;;8.81;100.00
54172;BME280;40076;52.354;4.970;2024-02-14T00:57:07;101189.56;;;8.83;100.00
54172;BME280;40076;52.354;4.970;2024-02-14T00:59:32;101184.97;;;8.83;100.00
54172;BME280;40076;52.354;4.970;2024-02-14T01:01:58;101191.63;;;8.86;100.00
54172;BME280;40076;52.354;4.970;2024-02-14T01:04:24;101182.47;;;8.87;100.00
54172;BME280;40076;52.354;4.970;2024-02-14T01:06:49;101189.97;;;8.90;100.00
54172;BME280;40076;52.354;4.970;2024-02-14T01:09:17;101189.66;;;8.92;100.00
54172;BME280;40076;52.354;4.970;2024-02-14T01:11:42;101191.75;;;8.95;100.00
54172;BME280;40076;52.354;4.970;2024-02-14T01:14:08;101186.34;;;8.95;100.00
54172;BME280;40076;52.354;4.970;2024-02-14T01:16:33;101191.16;;;8.98;100.00
54172;BME280;40076;52.354;4.970;2024-02-14T01:18:59;101193.56;;;8.99;100.00
54172;BME280;40076;52.354;4.970;2024-02-14T01:21:24;101194.66;;;8.98;100.00
54172;BME280;40076;52.354;4.970;2024-02-14T01:23:49;101189.75;;;9.00;100.00
54172;BME280;40076;52.354;4.970;2024-02-14T01:26:15;101199.13;;;9.03;100.00
54172;BME280;40076;52.354;4.970;2024-02-14T01:28:40;101193.44;;;9.04;100.00
54172;BME280;40076;52.354;4.970;2024-02-14T01:31:06;101190.75;;;9.04;100.00
54172;BME280;40076;52.354;4.970;2024-02-14T01:33:31;101204.75;;;9.06;100.00
54172;BME280;40076;52.354;4.970;2024-02-14T01:35:57;101199.81;;;9.08;100.00
54172;BME280;40076;52.354;4.970;2024-02-14T01:38:23;101204.94;;;9.10;100.00
54172;BME280;40076;52.354;4.970;2024-02-14T01:40:48;101208.94;;;9.12;100.00
54172;BME280;40076;52.354;4.970;2024-02-14T01:43:14;101207.84;;;9.13;100.00
54172;BME280;40076;52.354;4.970;2024-02-14T01:45:40;101205.66;;;9.15;100.00
54172;BME280;40076;52.354;4.970;2024-02-14T01:48:06;101208.81;;;9.17;100.00
54172;BME280;40076;52.354;4.970;2024-02-14T01:50:33;101208.53;;;9.19;100.00
54172;BME280;40076;52.354;4.970;2024-02-14T01:53:00;101216.31;;;9.20;100.00
54172;BME280;40076;52.354;4.970;2024-02-14T01:55:27;101211.44;;;9.22;100.00
54172;BME280;40076;52.354;4.970;2024-02-14T01:57:53;101215.13;;;9.26;100.00
54172;BME280;40076;52.354;4.970;2024-02-14T02:00:19;101221.31;;;9.27;100.00
54172;BME280;40076;52.354;4.970;2024-02-14T02:02:45;101208.03;;;9.31;100.00
54172;BME280;40076;52.354;4.970;2024-02-14T02:05:12;101222.00;;;9.33;100.00
54172;BME280;40076;52.354;4.970;2024-02-14T02:07:37;101217.91;;;9.35;100.00
54172;BME280;40076;52.354;4.970;2024-02-14T02:10:09;101218.41;;;9.37;100.00
54172;BME280;40076;52.354;4.970;2024-02-14T02:12:37;101231.59;;;9.39;100.00
54172;BME280;40076;52.354;4.970;2024-02-14T02:15:08;101214.81;;;9.42;100.00
54172;BME280;40076;52.354;4.970;2024-02-14T02:17:39;101223.09;;;9.45;100.00
54172;BME280;40076;52.354;4.970;2024-02-14T02:20:05;101225.47;;;9.47;100.00
54172;BME280;40076;52.354;4.970;2024-02-14T02:22:32;101232.19;;;9.49;100.00
54172;BME280;40076;52.354;4.970;2024-02-14T02:25:01;101228.38;;;9.50;100.00
54172;BME280;40076;52.354;4.970;2024-02-14T02:27:26;101230.00;;;9.51;100.00
54172;BME280;40076;52.354;4.970;2024-02-14T02:29:53;101230.16;;;9.55;100.00
54172;BME280;40076;52.354;4.970;2024-02-14T02:32:18;101231.78;;;9.56;100.00
54172;BME280;40076;52.354;4.970;2024-02-14T02:34:43;101224.19;;;9.58;100.00
54172;BME280;40076;52.354;4.970;2024-02-14T02:37:11;101224.34;;;9.61;100.00
54172;BME280;40076;52.354;4.970;2024-02-14T02:39:37;101230.25;;;9.63;100.00
54172;BME280;40076;52.354;4.970;2024-02-14T02:42:03;101228.06;;;9.65;100.00
54172;BME280;40076;52.354;4.970;2024-02-14T02:44:28;101228.25;;;9.69;100.00
54172;BME280;40076;52.354;4.970;2024-02-14T02:46:54;101227.16;;;9.70;100.00
54172;BME280;40076;52.354;4.970;2024-02-14T02:49:21;101237.66;;;9.72;100.00
54172;BME280;40076;52.354;4.970;2024-02-14T02:51:46;101230.84;;;9.74;100.00
54172;BME280;40076;52.354;4.970;2024-02-14T02:54:11;101229.44;;;9.77;100.00
54172;BME280;40076;52.354;4.970;2024-02-14T02:56:37;101230.72;;;9.79;100.00
54172;BME280;40076;52.354;4.970;2024-02-14T02:59:02;101232.34;;;9.80;100.00
54172;BME280;40076;52.354;4.970;2024-02-14T03:01:34;101231.22;;;9.81;100.00
54172;BME280;40076;52.354;4.970;2024-02-14T03:04:00;101235.53;;;9.82;100.00
54172;BME280;40076;52.354;4.970;2024-02-14T03:06:25;101237.13;;;9.83;100.00
54172;BME280;40076;52.354;4.970;2024-02-14T03:08:51;101234.44;;;9.83;100.00
54172;BME280;40076;52.354;4.970;2024-02-14T03:11:18;101237.59;;;9.85;100.00
54172;BME280;40076;52.354;4.970;2024-02-14T03:13:44;101230.00;;;9.87;100.00
54172;BME280;40076;52.354;4.970;2024-02-14T03:16:12;101237.00;;;9.88;100.00
54172;BME280;40076;52.354;4.970;2024-02-14T03:18:40;101247.97;;;9.92;100.00
54172;BME280;40076;52.354;4.970;2024-02-14T03:21:05;101235.78;;;9.94;100.00
54172;BME280;40076;52.354;4.970;2024-02-14T03:23:31;101234.69;;;9.95;100.00
54172;BME280;40076;52.354;4.970;2024-02-14T03:25:57;101246.78;;;9.98;100.00
54172;BME280;40076;52.354;4.970;2024-02-14T03:28:25;101245.38;;;10.00;100.00
54172;BME280;40076;52.354;4.970;2024-02-14T03:30:51;101240.78;;;10.01;100.00
54172;BME280;40076;52.354;4.970;2024-02-14T03:33:17;101251.47;;;10.06;100.00
54172;BME280;40076;52.354;4.970;2024-02-14T03:35:42;101247.03;;;10.10;100.00
54172;BME280;40076;52.354;4.970;2024-02-14T03:38:08;101257.53;;;10.12;100.00
54172;BME280;40076;52.354;4.970;2024-02-14T03:40:34;101260.75;;;10.14;100.00
54172;BME280;40076;52.354;4.970;2024-02-14T03:43:01;101248.25;;;10.18;100.00
54172;BME280;40076;52.354;4.970;2024-02-14T03:45:27;101257.94;;;10.19;100.00
54172;BME280;40076;52.354;4.970;2024-02-14T03:47:55;101260.34;;;10.20;100.00
54172;BME280;40076;52.354;4.970;2024-02-14T03:50:23;101266.22;;;10.22;100.00
54172;BME280;40076;52.354;4.970;2024-02-14T03:52:48;101256.72;;;10.25;100.00
54172;BME280;40076;52.354;4.970;2024-02-14T03:55:14;101258.81;;;10.28;100.00
54172;BME280;40076;52.354;4.970;2024-02-14T03:57:44;101261.22;;;10.29;100.00
54172;BME280;40076;52.354;4.970;2024-02-14T04:00:11;101253.28;;;10.33;100.00
54172;BME280;40076;52.354;4.970;2024-02-14T04:02:36;101270.00;;;10.35;100.00
54172;BME280;40076;52.354;4.970;2024-02-14T04:05:05;101260.50;;;10.37;100.00
54172;BME280;40076;52.354;4.970;2024-02-14T04:07:32;101264.47;;;10.40;100.00
54172;BME280;40076;52.354;4.970;2024-02-14T04:09:59;101272.78;;;10.43;100.00
54172;BME280;40076;52.354;4.970;2024-02-14T04:12:24;101262.25;;;10.42;100.00
54172;BME280;40076;52.354;4.970;2024-02-14T04:14:53;101287.06;;;10.44;100.00
54172;BME280;40076;52.354;4.970;2024-02-14T04:17:18;101284.53;;;10.48;100.00
54172;BME280;40076;52.354;4.970;2024-02-14T04:19:44;101292.34;;;10.49;100.00
54172;BME280;40076;52.354;4.970;2024-02-14T04:22:09;101288.56;;;10.50;100.00
54172;BME280;40076;52.354;4.970;2024-02-14T04:24:37;101289.06;;;10.52;100.00
54172;BME280;40076;52.354;4.970;2024-02-14T04:27:05;101297.63;;;10.54;100.00
54172;BME280;40076;52.354;4.970;2024-02-14T04:29:30;101295.41;;;10.56;100.00
54172;BME280;40076;52.354;4.970;2024-02-14T04:31:59;101304.03;;;10.58;100.00
54172;BME280;40076;52.354;4.970;2024-02-14T04:34:25;101296.72;;;10.59;100.00
54172;BME280;40076;52.354;4.970;2024-02-14T04:36:54;101299.13;;;10.60;100.00
54172;BME280;40076;52.354;4.970;2024-02-14T04:39:20;101302.00;;;10.64;100.00
54172;BME280;40076;52.354;4.970;2024-02-14T04:41:45;101300.88;;;10.65;100.00
54172;BME280;40076;52.354;4.970;2024-02-14T04:44:13;101302.78;;;10.64;100.00
54172;BME280;40076;52.354;4.970;2024-02-14T04:46:41;101308.69;;;10.66;100.00
54172;BME280;40076;52.354;4.970;2024-02-14T04:49:09;101299.78;;;10.66;100.00
54172;BME280;40076;52.354;4.970;2024-02-14T04:51:37;101308.69;;;10.66;100.00
54172;BME280;40076;52.354;4.970;2024-02-14T04:54:02;101311.41;;;10.66;100.00
54172;BME280;40076;52.354;4.970;2024-02-14T04:56:30;101311.88;;;10.68;100.00
54172;BME280;40076;52.354;4.970;2024-02-14T04:58:56;101313.47;;;10.69;100.00
54172;BME280;40076;52.354;4.970;2024-02-14T05:01:23;101319.97;;;10.68;100.00
54172;BME280;40076;52.354;4.970;2024-02-14T05:03:49;101323.19;;;10.70;100.00
54172;BME280;40076;52.354;4.970;2024-02-14T05:06:17;101323.19;;;10.70;100.00
54172;BME280;40076;52.354;4.970;2024-02-14T05:08:46;101336.38;;;10.72;100.00
54172;BME280;40076;52.354;4.970;2024-02-14T05:11:12;101330.69;;;10.73;100.00
54172;BME280;40076;52.354;4.970;2024-02-14T05:13:37;101324.19;;;10.74;100.00
54172;BME280;40076;52.354;4.970;2024-02-14T05:16:04;101336.09;;;10.73;100.00
54172;BME280;40076;52.354;4.970;2024-02-14T05:18:29;101334.66;;;10.76;100.00
54172;BME280;40076;52.354;4.970;2024-02-14T05:20:55;101327.06;;;10.78;100.00
54172;BME280;40076;52.354;4.970;2024-02-14T05:23:23;101325.44;;;10.77;100.00
54172;BME280;40076;52.354;4.970;2024-02-14T05:25:48;101330.56;;;10.78;100.00
54172;BME280;40076;52.354;4.970;2024-02-14T05:28:15;101329.44;;;10.79;100.00
54172;BME280;40076;52.354;4.970;2024-02-14T05:30:43;101332.94;;;10.80;100.00
54172;BME280;40076;52.354;4.970;2024-02-14T05:33:08;101336.16;;;10.82;100.00
54172;BME280;40076;52.354;4.970;2024-02-14T05:35:34;101338.53;;;10.83;100.00
54172;BME280;40076;52.354;4.970;2024-02-14T05:37:59;101336.63;;;10.84;100.00
54172;BME280;40076;52.354;4.970;2024-02-14T05:40:25;101341.72;;;10.86;100.00
54172;BME280;40076;52.354;4.970;2024-02-14T05:42:50;101337.13;;;10.86;100.00
54172;BME280;40076;52.354;4.970;2024-02-14T05:45:18;101337.91;;;10.87;100.00
54172;BME280;40076;52.354;4.970;2024-02-14T05:47:43;101338.41;;;10.89;100.00
54172;BME280;40076;52.354;4.970;2024-02-14T05:50:09;101343.81;;;10.89;100.00
54172;BME280;40076;52.354;4.970;2024-02-14T05:52:37;101347.03;;;10.91;100.00
54172;BME280;40076;52.354;4.970;2024-02-14T05:55:05;101345.91;;;10.92;100.00
54172;BME280;40076;52.354;4.970;2024-02-14T05:57:33;101351.81;;;10.94;100.00
54172;BME280;40076;52.354;4.970;2024-02-14T05:59:59;101359.91;;;10.94;100.00
54172;BME280;40076;52.354;4.970;2024-02-14T06:02:24;101348.81;;;10.95;100.00
54172;BME280;40076;52.354;4.970;2024-02-14T06:04:50;101359.00;;;10.98;100.00
54172;BME280;40076;52.354;4.970;2024-02-14T06:07:16;101361.22;;;10.96;100.00
54172;BME280;40076;52.354;4.970;2024-02-14T06:09:41;101364.72;;;10.97;100.00
54172;BME280;40076;52.354;4.970;2024-02-14T06:12:07;101364.72;;;10.97;100.00
54172;BME280;40076;52.354;4.970;2024-02-14T06:14:33;101367.13;;;10.98;100.00
54172;BME280;40076;52.354;4.970;2024-02-14T06:17:00;101366.78;;;11.00;100.00
54172;BME280;40076;52.354;4.970;2024-02-14T06:19:26;101364.09;;;11.00;100.00
54172;BME280;40076;52.354;4.970;2024-02-14T06:21:51;101371.91;;;11.01;100.00
54172;BME280;40076;52.354;4.970;2024-02-14T06:24:19;101370.78;;;11.02;100.00
54172;BME280;40076;52.354;4.970;2024-02-14T06:26:47;101363.47;;;11.03;100.00
54172;BME280;40076;52.354;4.970;2024-02-14T06:29:12;101373.81;;;11.01;100.00
54172;BME280;40076;52.354;4.970;2024-02-14T06:31:38;101377.00;;;11.03;100.00
54172;BME280;40076;52.354;4.970;2024-02-14T06:34:05;101383.22;;;11.03;100.00
54172;BME280;40076;52.354;4.970;2024-02-14T06:36:32;101382.41;;;11.03;100.00
54172;BME280;40076;52.354;4.970;2024-02-14T06:38:57;101394.34;;;11.02;100.00
54172;BME280;40076;52.354;4.970;2024-02-14T06:41:23;101396.72;;;11.03;100.00
54172;BME280;40076;52.354;4.970;2024-02-14T06:43:48;101400.53;;;11.02;100.00
54172;BME280;40076;52.354;4.970;2024-02-14T06:46:16;101402.13;;;11.03;100.00
54172;BME280;40076;52.354;4.970;2024-02-14T06:48:43;101404.84;;;11.03;100.00
54172;BME280;40076;52.354;4.970;2024-02-14T06:51:11;101406.44;;;11.04;100.00
54172;BME280;40076;52.354;4.970;2024-02-14T06:53:36;101399.13;;;11.05;100.00
54172;BME280;40076;52.354;4.970;2024-02-14T06:56:02;101397.53;;;11.04;100.00
54172;BME280;40076;52.354;4.970;2024-02-14T06:58:27;101405.34;;;11.05;100.00
54172;BME280;40076;52.354;4.970;2024-02-14T07:00:55;101402.94;;;11.04;100.00
54172;BME280;40076;52.354;4.970;2024-02-14T07:03:20;101410.41;;;11.07;100.00
54172;BME280;40076;52.354;4.970;2024-02-14T07:05:46;101408.84;;;11.06;100.00
54172;BME280;40076;52.354;4.970;2024-02-14T07:08:11;101419.66;;;11.06;100.00
54172;BME280;40076;52.354;4.970;2024-02-14T07:10:40;101421.25;;;11.07;100.00
54172;BME280;40076;52.354;4.970;2024-02-14T07:13:05;101413.94;;;11.07;100.00
54172;BME280;40076;52.354;4.970;2024-02-14T07:15:33;101426.34;;;11.08;100.00
54172;BME280;40076;52.354;4.970;2024-02-14T07:17:59;101422.84;;;11.08;100.00
54172;BME280;40076;52.354;4.970;2024-02-14T07:20:24;101427.16;;;11.09;100.00
54172;BME280;40076;52.354;4.970;2024-02-14T07:22:53;101430.66;;;11.09;100.00
54172;BME280;40076;52.354;4.970;2024-02-14T07:25:19;101428.44;;;11.11;100.00
54172;BME280;40076;52.354;4.970;2024-02-14T07:27:45;101430.34;;;11.11;100.00
54172;BME280;40076;52.354;4.970;2024-02-14T07:30:13;101434.66;;;11.12;100.00
54172;BME280;40076;52.354;4.970;2024-02-14T07:32:39;101436.25;;;11.13;100.00
54172;BME280;40076;52.354;4.970;2024-02-14T07:35:05;101423.53;;;11.13;100.00
54172;BME280;40076;52.354;4.970;2024-02-14T07:37:30;101432.44;;;11.14;100.00
54172;BME280;40076;52.354;4.970;2024-02-14T07:39:56;101431.31;;;11.15;100.00
54172;BME280;40076;52.354;4.970;2024-02-14T07:42:21;101432.94;;;11.16;100.00
54172;BME280;40076;52.354;4.970;2024-02-14T07:44:51;101431.31;;;11.15;100.00
54172;BME280;40076;52.354;4.970;2024-02-14T07:47:17;101439.63;;;11.18;100.00
54172;BME280;40076;52.354;4.970;2024-02-14T07:49:42;101435.81;;;11.19;100.00
54172;BME280;40076;52.354;4.970;2024-02-14T07:52:08;101436.63;;;11.20;100.00
54172;BME280;40076;52.354;4.970;2024-02-14T07:54:33;101440.44;;;11.19;100.00
54172;BME280;40076;52.354;4.970;2024-02-14T07:56:58;101446.34;;;11.21;100.00
54172;BME280;40076;52.354;4.970;2024-02-14T07:59:24;101446.34;;;11.21;100.00
54172;BME280;40076;52.354;4.970;2024-02-14T08:01:49;101456.84;;;11.22;100.00
54172;BME280;40076;52.354;4.970;2024-02-14T08:04:15;101454.13;;;11.22;100.00
54172;BME280;40076;52.354;4.970;2024-02-14T08:06:40;101456.53;;;11.24;100.00
54172;BME280;40076;52.354;4.970;2024-02-14T08:09:06;101458.94;;;11.26;100.00
54172;BME280;40076;52.354;4.970;2024-02-14T08:11:35;101455.13;;;11.27;100.00
54172;BME280;40076;52.354;4.970;2024-02-14T08:14:03;101452.44;;;11.27;100.00
54172;BME280;40076;52.354;4.970;2024-02-14T08:16:30;101454.50;;;11.30;100.00
54172;BME280;40076;52.354;4.970;2024-02-14T08:18:55;101461.50;;;11.31;100.00
54172;BME280;40076;52.354;4.970;2024-02-14T08:21:27;101459.91;;;11.30;100.00
54172;BME280;40076;52.354;4.970;2024-02-14T08:23:55;101466.63;;;11.32;100.00
54172;BME280;40076;52.354;4.970;2024-02-14T08:26:21;101460.09;;;11.33;100.00
54172;BME280;40076;52.354;4.970;2024-02-14T08:28:49;101469.03;;;11.34;100.00
54172;BME280;40076;52.354;4.970;2024-02-14T08:31:14;101463.59;;;11.34;100.00
54172;BME280;40076;52.354;4.970;2024-02-14T08:33:40;101466.81;;;11.36;100.00
54172;BME280;40076;52.354;4.970;2024-02-14T08:36:06;101465.69;;;11.37;100.00
54172;BME280;40076;52.354;4.970;2024-02-14T08:38:32;101472.41;;;11.39;100.00
54172;BME280;40076;52.354;4.970;2024-02-14T08:40:57;101469.69;;;11.39;100.00
54172;BME280;40076;52.354;4.970;2024-02-14T08:43:23;101466.69;;;11.41;100.00
54172;BME280;40076;52.354;4.970;2024-02-14T08:45:53;101468.59;;;11.40;100.00
54172;BME280;40076;52.354;4.970;2024-02-14T08:48:19;101472.59;;;11.43;100.00
54172;BME280;40076;52.354;4.970;2024-02-14T08:53:52;101476.09;;;11.43;100.00
54172;BME280;40076;52.354;4.970;2024-02-14T08:56:24;101482.31;;;11.44;100.00
54172;BME280;40076;52.354;4.970;2024-02-14T08:58:57;101483.09;;;11.44;100.00
54172;BME280;40076;52.354;4.970;2024-02-14T09:01:23;101481.97;;;11.45;100.00
54172;BME280;40076;52.354;4.970;2024-02-14T09:03:48;101487.09;;;11.47;100.00
54172;BME280;40076;52.354;4.970;2024-02-14T09:06:16;101489.78;;;11.47;100.00
54172;BME280;40076;52.354;4.970;2024-02-14T09:08:45;101495.22;;;11.47;100.00
54172;BME280;40076;52.354;4.970;2024-02-14T09:11:11;101495.22;;;11.47;100.00
54172;BME280;40076;52.354;4.970;2024-02-14T09:13:37;101495.50;;;11.45;100.00
54172;BME280;40076;52.354;4.970;2024-02-14T09:16:03;101496.00;;;11.47;100.00
54172;BME280;40076;52.354;4.970;2024-02-14T09:18:28;101495.22;;;11.47;100.00
54172;BME280;40076;52.354;4.970;2024-02-14T09:20:56;101503.31;;;11.47;100.00
54172;BME280;40076;52.354;4.970;2024-02-14T09:23:22;101502.53;;;11.46;100.00
54172;BME280;40076;52.354;4.970;2024-02-14T09:25:48;101503.63;;;11.45;100.00
54172;BME280;40076;52.354;4.970;2024-02-14T09:28:15;101508.56;;;11.43;100.00
54172;BME280;40076;52.354;4.970;2024-02-14T09:30:41;101501.56;;;11.42;100.00
54172;BME280;40076;52.354;4.970;2024-02-14T09:33:07;101504.72;;;11.44;100.00
54172;BME280;40076;52.354;4.970;2024-02-14T09:35:32;101503.97;;;11.44;100.00
54172;BME280;40076;52.354;4.970;2024-02-14T09:38:00;101501.56;;;11.42;100.00
54172;BME280;40076;52.354;4.970;2024-02-14T09:40:25;101502.34;;;11.43;100.00
54172;BME280;40076;52.354;4.970;2024-02-14T09:42:54;101502.66;;;11.41;100.00
54172;BME280;40076;52.354;4.970;2024-02-14T09:45:22;101505.38;;;11.41;100.00
54172;BME280;40076;52.354;4.970;2024-02-14T09:47:49;101506.16;;;11.42;100.00
54172;BME280;40076;52.354;4.970;2024-02-14T09:50:19;101506.47;;;11.40;100.00
54172;BME280;40076;52.354;4.970;2024-02-14T09:52:47;101513.78;;;11.40;100.00
54172;BME280;40076;52.354;4.970;2024-02-14T09:55:14;101516.19;;;11.41;100.00
54172;BME280;40076;52.354;4.970;2024-02-14T09:57:42;101510.78;;;11.41;100.00
54172;BME280;40076;52.354;4.970;2024-02-14T10:00:10;101509.97;;;11.41;100.00
54172;BME280;40076;52.354;4.970;2024-02-14T10:02:36;101513.78;;;11.40;100.00
54172;BME280;40076;52.354;4.970;2024-02-14T10:05:03;101509.19;;;11.40;100.00
54172;BME280;40076;52.354;4.970;2024-02-14T10:07:29;101509.69;;;11.42;100.00
54172;BME280;40076;52.354;4.970;2024-02-14T10:10:05;101510.47;;;11.43;100.00
54172;BME280;40076;52.354;4.970;2024-02-14T10:12:32;101517.78;;;11.42;100.00
54172;BME280;40076;52.354;4.970;2024-02-14T10:14:57;101518.59;;;11.43;100.00
54172;BME280;40076;52.354;4.970;2024-02-14T10:17:24;101520.78;;;11.41;100.00
54172;BME280;40076;52.354;4.970;2024-02-14T10:19:58;101524.00;;;11.43;100.00
54172;BME280;40076;52.354;4.970;2024-02-14T10:22:31;101530.22;;;11.43;100.00
54172;BME280;40076;52.354;4.970;2024-02-14T10:24:57;101523.19;;;11.42;100.00
54172;BME280;40076;52.354;4.970;2024-02-14T10:27:25;101522.91;;;11.44;100.00
54172;BME280;40076;52.354;4.970;2024-02-14T10:29:51;101522.41;;;11.42;100.00
54172;BME280;40076;52.354;4.970;2024-02-14T10:32:18;101519.88;;;11.45;100.00
54172;BME280;40076;52.354;4.970;2024-02-14T10:34:45;101522.56;;;11.45;100.00
54172;BME280;40076;52.354;4.970;2024-02-14T10:37:14;101527.19;;;11.45;100.00
54172;BME280;40076;52.354;4.970;2024-02-14T10:39:41;101533.09;;;11.47;100.00
54172;BME280;40076;52.354;4.970;2024-02-14T10:42:07;101532.78;;;11.48;100.00
54172;BME280;40076;52.354;4.970;2024-02-14T10:44:34;101536.81;;;11.51;100.00
54172;BME280;40076;52.354;4.970;2024-02-14T10:47:02;101526.78;;;11.51;100.00
54172;BME280;40076;52.354;4.970;2024-02-14T10:49:33;101535.06;;;11.55;100.00
54172;BME280;40076;52.354;4.970;2024-02-14T10:52:02;101531.25;;;11.56;100.00
54172;BME280;40076;52.354;4.970;2024-02-14T10:54:33;101525.53;;;11.57;100.00
54172;BME280;40076;52.354;4.970;2024-02-14T10:57:05;101536.06;;;11.59;100.00
54172;BME280;40076;52.354;4.970;2024-02-14T11:00:11;101527.31;;;11.62;100.00
54172;BME280;40076;52.354;4.970;2024-02-14T11:03:11;101533.53;;;11.63;100.00
54172;BME280;40076;52.354;4.970;2024-02-14T11:06:14;101535.13;;;11.64;100.00
54172;BME280;40076;52.354;4.970;2024-02-14T11:09:01;101539.44;;;11.65;100.00
54172;BME280;40076;52.354;4.970;2024-02-14T11:11:30;101542.66;;;11.67;100.00
54172;BME280;40076;52.354;4.970;2024-02-14T11:13:58;101540.41;;;11.69;100.00
54172;BME280;40076;52.354;4.970;2024-02-14T11:16:31;101531.19;;;11.70;100.00
54172;BME280;40076;52.354;4.970;2024-02-14T11:19:31;101523.25;;;11.73;100.00
54172;BME280;40076;52.354;4.970;2024-02-14T11:22:21;101515.63;;;11.75;100.00
54172;BME280;40076;52.354;4.970;2024-02-14T11:27:52;101526.16;;;11.77;100.00
54172;BME280;40076;52.354;4.970;2024-02-14T11:30:52;101524.56;;;11.76;100.00
54172;BME280;40076;52.354;4.970;2024-02-14T11:33:43;101525.34;;;11.76;100.00
54172;BME280;40076;52.354;4.970;2024-02-14T11:36:25;101523.44;;;11.77;100.00
54172;BME280;40076;52.354;4.970;2024-02-14T11:38:51;101526.97;;;11.77;100.00
54172;BME280;40076;52.354;4.970;2024-02-14T11:41:27;101522.34;;;11.78;100.00
54172;BME280;40076;52.354;4.970;2024-02-14T11:47:35;101524.44;;;11.81;100.00
54172;BME280;40076;52.354;4.970;2024-02-14T11:50:09;101502.78;;;11.81;100.00
54172;BME280;40076;52.354;4.970;2024-02-14T11:52:43;101514.41;;;11.81;100.00
54172;BME280;40076;52.354;4.970;2024-02-14T11:55:29;101510.25;;;11.84;100.00
54172;BME280;40076;52.354;4.970;2024-02-14T11:58:14;101513.47;;;11.86;100.00
54172;BME280;40076;52.354;4.970;2024-02-14T12:00:42;101508.06;;;11.86;100.00
54172;BME280;40076;52.354;4.970;2024-02-14T12:03:55;101499.13;;;11.85;100.00
54172;BME280;40076;52.354;4.970;2024-02-14T12:06:45;101498.03;;;11.86;100.00
54172;BME280;40076;52.354;4.970;2024-02-14T12:12:22;101490.41;;;11.88;100.00
54172;BME280;40076;52.354;4.970;2024-02-14T12:14:56;101490.88;;;11.90;100.00
54172;BME280;40076;52.354;4.970;2024-02-14T12:17:27;101498.22;;;11.90;100.00
54172;BME280;40076;52.354;4.970;2024-02-14T12:20:14;101502.50;;;11.91;100.00
54172;BME280;40076;52.354;4.970;2024-02-14T12:22:58;101497.28;;;11.94;100.00
54172;BME280;40076;52.354;4.970;2024-02-14T12:26:21;101491.84;;;11.94;100.00
54172;BME280;40076;52.354;4.970;2024-02-14T12:28:52;101489.94;;;11.95;100.00
54172;BME280;40076;52.354;4.970;2024-02-14T12:31:25;101498.88;;;11.95;100.00
54172;BME280;40076;52.354;4.970;2024-02-14T12:33:50;101500.13;;;11.98;100.00
54172;BME280;40076;52.354;4.970;2024-02-14T12:36:35;101502.06;;;11.97;100.00
54172;BME280;40076;52.354;4.970;2024-02-14T12:39:39;101508.25;;;11.98;100.00
54172;BME280;40076;52.354;4.970;2024-02-14T12:42:15;101499.84;;;11.99;100.00
54172;BME280;40076;52.354;4.970;2024-02-14T12:44:53;101496.31;;;11.99;100.00
54172;BME280;40076;52.354;4.970;2024-02-14T12:47:22;101500.63;;;12.00;100.00
54172;BME280;40076;52.354;4.970;2024-02-14T12:49:59;101502.22;;;12.01;100.00
54172;BME280;40076;52.354;4.970;2024-02-14T12:52:35;101491.41;;;12.01;100.00
54172;BME280;40076;52.354;4.970;2024-02-14T12:55:03;101494.91;;;12.02;100.00
54172;BME280;40076;52.354;4.970;2024-02-14T12:57:31;101496.81;;;12.01;100.00
54172;BME280;40076;52.354;4.970;2024-02-14T13:00:07;101502.72;;;12.03;100.00
54172;BME280;40076;52.354;4.970;2024-02-14T13:02:35;101498.13;;;12.04;100.00